地図

経路データ

SID SEASON NUMBER BASIN SUBBASIN NAME ISO_TIME NATURE LAT LON WMO_WIND WMO_PRES WMO_AGENCY TRACK_TYPE DIST2LAND LANDFALL IFLAG USA_AGENCY USA_ATCF_ID USA_LAT USA_LON USA_RECORD USA_STATUS USA_WIND USA_PRES USA_SSHS USA_R34_NE USA_R34_SE USA_R34_SW USA_R34_NW USA_R50_NE USA_R50_SE USA_R50_SW USA_R50_NW USA_R64_NE USA_R64_SE USA_R64_SW USA_R64_NW USA_POCI USA_ROCI USA_RMW USA_EYE TOKYO_LAT TOKYO_LON TOKYO_GRADE TOKYO_WIND TOKYO_PRES TOKYO_R50_DIR TOKYO_R50_LONG TOKYO_R50_SHORT TOKYO_R30_DIR TOKYO_R30_LONG TOKYO_R30_SHORT TOKYO_LAND CMA_LAT CMA_LON CMA_CAT CMA_WIND CMA_PRES HKO_LAT HKO_LON HKO_CAT HKO_WIND HKO_PRES NEWDELHI_LAT NEWDELHI_LON NEWDELHI_GRADE NEWDELHI_WIND NEWDELHI_PRES NEWDELHI_CI NEWDELHI_DP NEWDELHI_POCI REUNION_LAT REUNION_LON REUNION_TYPE REUNION_WIND REUNION_PRES REUNION_TNUM REUNION_CI REUNION_RMW REUNION_R34_NE REUNION_R34_SE REUNION_R34_SW REUNION_R34_NW REUNION_R50_NE REUNION_R50_SE REUNION_R50_SW REUNION_R50_NW REUNION_R64_NE REUNION_R64_SE REUNION_R64_SW REUNION_R64_NW BOM_LAT BOM_LON BOM_TYPE BOM_WIND BOM_PRES BOM_TNUM BOM_CI BOM_RMW BOM_R34_NE BOM_R34_SE BOM_R34_SW BOM_R34_NW BOM_R50_NE BOM_R50_SE BOM_R50_SW BOM_R50_NW BOM_R64_NE BOM_R64_SE BOM_R64_SW BOM_R64_NW BOM_ROCI BOM_POCI BOM_EYE BOM_POS_METHOD BOM_PRES_METHOD NADI_LAT NADI_LON NADI_CAT NADI_WIND NADI_PRES WELLINGTON_LAT WELLINGTON_LON WELLINGTON_WIND WELLINGTON_PRES DS824_LAT DS824_LON DS824_STAGE DS824_WIND DS824_PRES TD9636_LAT TD9636_LON TD9636_STAGE TD9636_WIND TD9636_PRES TD9635_LAT TD9635_LON TD9635_WIND TD9635_PRES TD9635_ROCI NEUMANN_LAT NEUMANN_LON NEUMANN_CLASS NEUMANN_WIND NEUMANN_PRES MLC_LAT MLC_LON MLC_CLASS MLC_WIND MLC_PRES USA_GUST BOM_GUST BOM_GUST_PER REUNION_GUST REUNION_GUST_PER USA_SEAHGT USA_SEARAD_NE USA_SEARAD_SE USA_SEARAD_SW USA_SEARAD_NW STORM_SPEED STORM_DIR
1945093N12135 1945 19 WP MM NOT_NAMED 1945-04-02 12:00:00 NR 11.9000 134.500 main 954 933 __________O___ -1 11.9000 134.500 7 6 307
1945093N12135 1945 19 WP MM NOT_NAMED 1945-04-02 15:00:00 NR 12.0962 134.239 main 923 905 __________P___ -1 12.0962 134.239 7 7 312
1945093N12135 1945 19 WP MM NOT_NAMED 1945-04-02 18:00:00 NR 12.3537 133.992 main 907 889 __________P___ -1 12.3537 133.992 7 8 325
1945093N12135 1945 19 WP MM NOT_NAMED 1945-04-02 21:00:00 NR 12.7344 133.774 main 891 880 __________P___ -1 12.7344 133.774 7 10 338
1945093N12135 1945 19 WP MM NOT_NAMED 1945-04-03 00:00:00 NR 13.3000 133.600 main 886 881 __________O___ -1 13.3000 133.600 7 14 348
1945093N12135 1945 19 WP MM NOT_NAMED 1945-04-03 03:00:00 NR 14.0806 133.490 main 892 892 __________P___ -1 14.0806 133.490 7 17 356
1945093N12135 1945 19 WP MM NOT_NAMED 1945-04-03 06:00:00 NR 14.9779 133.486 main 920 920 __________P___ -1 14.9779 133.486 7 18 5
1945093N12135 1945 19 WP MM NOT_NAMED 1945-04-03 09:00:00 NR 15.8613 133.639 main 967 967 __________P___ -1 15.8613 133.639 7 17 17
1945093N12135 1945 19 WP MM NOT_NAMED 1945-04-03 12:00:00 NR 16.6000 134.000 main 1039 1039 __________O___ -1 16.6000 134.000 7 16 39
1945093N12135 1945 19 WP MM NOT_NAMED 1945-04-03 15:00:00 NR 17.0955 134.679 main 1131 1131 __________P___ -1 17.0955 134.679 7 17 61
1945093N12135 1945 19 WP MM NOT_NAMED 1945-04-03 18:00:00 NR 17.4196 135.550 main 1222 1222 __________P___ -1 17.4196 135.550 7 18 74
1945093N12135 1945 19 WP MM NOT_NAMED 1945-04-03 21:00:00 NR 17.5833 136.471 main 1327 1327 __________P___ -1 17.5833 136.471 7 17 84
1945093N12135 1945 19 WP MM NOT_NAMED 1945-04-04 00:00:00 NR 17.6000 137.300 main 1404 1404 __________O___ -1 17.6000 137.300 7 13 95
1945093N12135 1945 19 WP MM NOT_NAMED 1945-04-04 03:00:00 NR 17.4768 137.826 main 1448 1448 __________P___ -1 17.4768 137.826 7 10 112
1945093N12135 1945 19 WP MM NOT_NAMED 1945-04-04 06:00:00 NR 17.2297 138.242 main 1476 1476 __________P___ -1 17.2297 138.242 7 9 125
1945093N12135 1945 19 WP MM NOT_NAMED 1945-04-04 09:00:00 NR 16.9429 138.613 main 1504 1504 __________P___ -1 16.9429 138.613 7 9 126
1945093N12135 1945 19 WP MM NOT_NAMED 1945-04-04 12:00:00 NR 16.7000 139.000 main 1538 1538 __________O___ -1 16.7000 139.000 7 9 115
1945093N12135 1945 19 WP MM NOT_NAMED 1945-04-04 15:00:00 NR 16.5523 139.489 main 1586 1583 __________P___ -1 16.5523 139.489 7 10 103
1945093N12135 1945 19 WP MM NOT_NAMED 1945-04-04 18:00:00 NR 16.4697 140.006 main 1634 1634 __________P___ -1 16.4697 140.006 7 10 94
1945093N12135 1945 19 WP MM NOT_NAMED 1945-04-04 21:00:00 NR 16.4772 140.546 main 1686 1686 __________P___ -1 16.4772 140.546 7 11 83
1945093N12135 1945 19 WP MM NOT_NAMED 1945-04-05 00:00:00 NR 16.6000 141.100 main 1750 1750 __________O___ -1 16.6000 141.100 7 11 68
1945093N12135 1945 19 WP MM NOT_NAMED 1945-04-05 03:00:00 NR 16.8961 141.651 main 1821 1821 __________P___ -1 16.8961 141.651 7 13 57
1945093N12135 1945 19 WP MM NOT_NAMED 1945-04-05 06:00:00 NR 17.2969 142.218 main 1884 1883 __________P___ -1 17.2969 142.218 7 14 53
1945093N12135 1945 19 WP MM NOT_NAMED 1945-04-05 09:00:00 NR 17.7242 142.801 main 1887 1865 __________P___ -1 17.7242 142.801 7 14 55
1945093N12135 1945 19 WP MM NOT_NAMED 1945-04-05 12:00:00 NR 18.1000 143.400 main 1869 1860 __________O___ -1 18.1000 143.400 7 13 61
1945093N12135 1945 19 WP MM NOT_NAMED 1945-04-05 15:00:00 NR 18.3647 144.013 main 1863 1863 __________P___ -1 18.3647 144.013 7 13 70
1945093N12135 1945 19 WP MM NOT_NAMED 1945-04-05 18:00:00 NR 18.5317 144.636 main 1880 1874 __________P___ -1 18.5317 144.636 7 12 77
1945093N12135 1945 19 WP MM NOT_NAMED 1945-04-05 21:00:00 NR 18.6328 145.267 main 1896 1888 __________P___ -1 18.6328 145.267 7 12 82
1945093N12135 1945 19 WP MM NOT_NAMED 1945-04-06 00:00:00 NR 18.7000 145.900 main 1903 __________O___ -1 18.7000 145.900 7 12 84

デジタル台風データ・検索

IBTrACS Databaseについて

本データベースは、米国NOAAが公開する1842年以降の世界の熱帯低気圧のベストトラックデータアーカイブInternational Best Track Archive for Climate Stewardship (IBTrACS)を、ウェブで閲覧しやすい形式に変換したものです。

最終更新日:2021-12-01